Time;durP1;ratioP1;P1;durP2;ratioP2;P2;SDS_P1;SDS_P2;PMS_P1;PMS_P2;Temp;Humidity;BMP_temperature;BMP_pressure;BME280_temperature;BME280_humidity;BME280_pressure;Samples;Min_cycle;Max_cycle;Signal;HPM_P1;HPM_P2
2024/01/09 00:00:41;;;;;;;10.13;3.70;;;;;;;-145.18;100.00;46720.94;4995719;28;20027;-64
2024/01/09 00:03:07;;;;;;;6.80;3.10;;;;;;;-145.18;100.00;46713.13;4995682;28;20036;-64
2024/01/09 00:05:32;;;;;;;6.67;2.87;;;;;;;-145.18;100.00;46717.03;4995902;28;20022;-63
2024/01/09 00:07:58;;;;;;;3.83;2.23;;;;;;;-145.18;100.00;46717.03;4996113;28;20023;-63
2024/01/09 00:10:23;;;;;;;5.70;2.30;;;;;;;-145.18;100.00;46713.13;4978091;28;20041;-64
2024/01/09 00:12:49;;;;;;;8.40;3.40;;;;;;;-145.18;100.00;46719.00;4978481;28;20048;-63
2024/01/09 00:15:14;;;;;;;3.83;2.57;;;;;;;-145.18;100.00;46717.03;4995657;28;20394;-63
2024/01/09 00:17:41;;;;;;;5.07;2.43;;;;;;;-145.18;100.00;46717.03;4995775;28;20030;-63
2024/01/09 00:20:06;;;;;;;6.22;2.90;;;;;;;-145.18;100.00;46713.13;4995476;28;20146;-63
2024/01/09 00:22:32;;;;;;;6.37;2.80;;;;;;;-145.18;100.00;46719.00;4995797;28;20482;-64
2024/01/09 00:24:57;;;;;;;9.57;3.17;;;;;;;-145.18;100.00;46713.13;4995392;28;20510;-65
2024/01/09 00:27:23;;;;;;;7.13;2.80;;;;;;;-145.18;100.00;46715.09;4994092;28;20027;-64
2024/01/09 00:29:48;;;;;;;10.47;3.30;;;;;;;-145.18;100.00;46711.19;4993886;28;20066;-63
2024/01/09 00:32:13;;;;;;;7.60;3.20;;;;;;;-145.18;100.00;46713.13;4994419;28;20041;-64
2024/01/09 00:34:41;;;;;;;6.47;3.03;;;;;;;-145.18;100.00;46717.03;4995167;28;20030;-63
2024/01/09 00:37:06;;;;;;;7.68;2.78;;;;;;;-145.18;100.00;46717.03;4995373;28;20030;-63
2024/01/09 00:39:31;;;;;;;6.23;2.87;;;;;;;-145.18;100.00;46715.09;4994739;28;20038;-64
2024/01/09 00:41:57;;;;;;;5.40;2.63;;;;;;;-145.18;100.00;46709.22;4995509;28;20058;-64
2024/01/09 00:44:22;;;;;;;8.60;3.13;;;;;;;-145.18;100.00;46711.19;4977191;28;20423;-64
2024/01/09 00:46:47;;;;;;;9.30;3.27;;;;;;;-145.18;100.00;46717.03;4995382;28;20073;-64
2024/01/09 00:49:13;;;;;;;4.00;2.30;;;;;;;-145.18;100.00;46711.19;4994495;28;20109;-63
2024/01/09 00:51:38;;;;;;;8.43;2.90;;;;;;;-145.18;100.00;46713.13;4995129;28;20030;-64
2024/01/09 00:54:04;;;;;;;6.80;2.90;;;;;;;-145.18;100.00;46711.19;4994865;28;20162;-64
2024/01/09 00:56:29;;;;;;;6.37;2.53;;;;;;;-145.18;100.00;46711.19;4993964;28;20030;-64
2024/01/09 00:58:54;;;;;;;6.30;2.70;;;;;;;-145.18;100.00;46711.19;4994854;28;20450;-64
2024/01/09 01:01:20;;;;;;;6.30;2.70;;;;;;;-145.18;100.00;46713.13;4994013;28;20068;-64
2024/01/09 01:03:45;;;;;;;8.30;3.00;;;;;;;-145.18;100.00;46711.19;4994823;28;20049;-65
2024/01/09 01:06:10;;;;;;;5.43;2.10;;;;;;;-145.18;100.00;46713.13;4976702;28;20533;-64
2024/01/09 01:08:37;;;;;;;4.13;2.20;;;;;;;-145.18;100.00;46709.22;4976711;28;20039;-64
2024/01/09 01:11:03;;;;;;;7.70;2.50;;;;;;;-145.18;100.00;46709.22;4977514;28;20030;-64
2024/01/09 01:13:30;;;;;;;6.15;2.40;;;;;;;-145.18;100.00;46711.19;4994733;28;20119;-64
2024/01/09 01:15:55;;;;;;;7.97;2.65;;;;;;;-145.18;100.00;46711.19;4994370;28;20030;-64
2024/01/09 01:18:20;;;;;;;5.47;2.17;;;;;;;-145.18;100.00;46713.13;4994699;28;20030;-63
2024/01/09 01:20:46;;;;;;;6.13;2.70;;;;;;;-145.18;100.00;46713.13;4994688;28;20034;-63
2024/01/09 01:23:11;;;;;;;3.40;1.73;;;;;;;-145.18;100.00;46713.13;4994550;28;20565;-64
2024/01/09 01:25:37;;;;;;;5.40;2.73;;;;;;;-145.18;100.00;46713.13;4994370;28;20054;-64
2024/01/09 01:28:03;;;;;;;4.28;2.17;;;;;;;-145.18;100.00;46709.22;4994381;28;20433;-63
2024/01/09 01:30:28;;;;;;;6.03;2.50;;;;;;;-145.18;100.00;46709.22;4994016;28;20042;-64
2024/01/09 01:32:54;;;;;;;7.37;2.40;;;;;;;-145.18;100.00;46711.19;4994244;28;20073;-63
2024/01/09 01:35:19;;;;;;;4.67;2.30;;;;;;;-145.18;100.00;46707.28;4994168;28;20034;-64
2024/01/09 01:37:44;;;;;;;8.23;3.47;;;;;;;-145.18;100.00;46713.13;4993914;28;20673;-64
2024/01/09 01:40:10;;;;;;;5.53;2.53;;;;;;;-145.18;100.00;46707.28;4976343;28;20033;-66
2024/01/09 01:42:36;;;;;;;5.32;2.42;;;;;;;-145.18;100.00;46709.22;4994093;28;20046;-64
2024/01/09 01:45:01;;;;;;;4.77;2.17;;;;;;;-145.18;100.00;46709.22;4976286;28;20096;-64
2024/01/09 01:47:27;;;;;;;5.43;2.60;;;;;;;-145.18;100.00;46709.22;4992482;28;20018;-64
2024/01/09 01:49:52;;;;;;;7.00;2.57;;;;;;;-145.18;100.00;46713.13;4994058;28;20034;-63
2024/01/09 01:52:19;;;;;;;5.83;2.83;;;;;;;-145.18;100.00;46715.09;4994191;28;20026;-64
2024/01/09 01:54:45;;;;;;;5.75;2.08;;;;;;;-145.18;100.00;46711.19;4992318;28;20479;-63
2024/01/09 01:57:12;;;;;;;8.65;2.63;;;;;;;-145.18;100.00;46717.03;4993468;28;20126;-63
2024/01/09 01:59:42;;;;;;;7.18;2.95;;;;;;;-145.18;100.00;46709.22;4993375;28;20030;-63
2024/01/09 02:02:08;;;;;;;7.07;2.20;;;;;;;-145.18;100.00;46711.19;4993625;28;20038;-64
2024/01/09 02:04:34;;;;;;;8.10;2.93;;;;;;;-145.18;100.00;46711.19;4993947;28;20030;-63
2024/01/09 02:07:00;;;;;;;7.68;2.45;;;;;;;-145.18;100.00;46711.19;4993463;28;20106;-64
2024/01/09 02:09:26;;;;;;;8.00;4.43;;;;;;;-145.18;100.00;46709.22;4975770;28;20129;-64
2024/01/09 02:11:52;;;;;;;8.43;2.58;;;;;;;-145.18;100.00;46715.09;4993010;28;20434;-64
2024/01/09 02:14:17;;;;;;;5.68;2.72;;;;;;;-145.18;100.00;46715.09;4993318;28;20037;-63
2024/01/09 02:16:43;;;;;;;5.83;2.83;;;;;;;-145.18;100.00;46711.19;4993104;28;20034;-63
2024/01/09 02:19:08;;;;;;;6.30;2.77;;;;;;;-145.18;100.00;46707.28;4992371;28;20403;-63
2024/01/09 02:21:34;;;;;;;6.53;3.03;;;;;;;-145.18;100.00;46709.22;4993208;28;20430;-64
2024/01/09 02:23:59;;;;;;;4.90;2.50;;;;;;;-145.18;100.00;46713.13;4993346;28;20038;-64
2024/01/09 02:26:38;;;;;;;5.97;2.30;;;;;;;-145.18;100.00;46713.13;4993127;28;20482;-64
2024/01/09 02:29:08;;;;;;;6.53;2.50;;;;;;;-145.18;100.00;46709.22;4992741;28;20450;-64
2024/01/09 02:31:34;;;;;;;5.03;2.33;;;;;;;-145.18;100.00;46709.22;4992465;28;20054;-63
2024/01/09 02:34:01;;;;;;;7.33;2.80;;;;;;;-145.18;100.00;46713.13;4975619;28;20096;-63
2024/01/09 02:36:26;;;;;;;7.28;2.10;;;;;;;-145.18;100.00;46713.13;4992796;28;20084;-63
2024/01/09 02:38:51;;;;;;;4.00;2.10;;;;;;;-145.18;100.00;46713.13;4993291;28;20038;-63
2024/01/09 02:41:17;;;;;;;7.37;2.53;;;;;;;-145.18;100.00;46713.13;4992756;28;20035;-64
2024/01/09 02:43:42;;;;;;;5.60;2.37;;;;;;;-145.18;100.00;46715.09;4975444;28;20034;-64
2024/01/09 02:46:07;;;;;;;6.93;3.03;;;;;;;-145.18;100.00;46709.22;4991250;28;20034;-63
2024/01/09 02:48:33;;;;;;;7.10;2.50;;;;;;;-145.18;100.00;46709.22;4993305;28;20109;-63
2024/01/09 02:50:59;;;;;;;7.85;2.90;;;;;;;-145.18;100.00;46713.13;4992561;28;20031;-63
2024/01/09 02:53:24;;;;;;;8.30;2.33;;;;;;;-145.18;100.00;46709.22;4993124;28;20030;-63
2024/01/09 02:55:50;;;;;;;5.97;2.23;;;;;;;-145.18;100.00;46711.19;4992983;28;20061;-63
2024/01/09 02:58:15;;;;;;;5.90;2.50;;;;;;;-145.18;100.00;46709.22;4992794;28;20089;-63
2024/01/09 03:00:40;;;;;;;5.60;1.77;;;;;;;-145.18;100.00;46705.31;4975097;28;20045;-63
2024/01/09 03:03:06;;;;;;;5.87;1.90;;;;;;;-145.18;100.00;46709.22;4974882;28;20422;-64
2024/01/09 03:05:31;;;;;;;4.60;2.50;;;;;;;-145.18;100.00;46705.31;4992203;28;20068;-63
2024/01/09 03:07:56;;;;;;;6.10;2.60;;;;;;;-145.18;100.00;46709.22;4992656;28;20030;-64
2024/01/09 03:10:22;;;;;;;5.73;2.13;;;;;;;-145.18;100.00;46707.28;4992611;28;20034;-64
2024/01/09 03:12:47;;;;;;;7.50;2.00;;;;;;;-145.18;100.00;46709.22;4975240;28;20034;-64
2024/01/09 03:15:13;;;;;;;6.50;2.40;;;;;;;-145.18;100.00;46713.13;4992646;28;20070;-63
2024/01/09 03:17:38;;;;;;;8.23;2.83;;;;;;;-145.18;100.00;46713.13;4980055;28;20057;-63
2024/01/09 03:20:06;;;;;;;7.87;2.60;;;;;;;-145.18;100.00;46711.19;4992006;28;20114;-63
2024/01/09 03:22:31;;;;;;;4.93;2.28;;;;;;;-145.18;100.00;46711.19;4991706;28;20497;-63
2024/01/09 03:24:57;;;;;;;7.43;3.10;;;;;;;-145.18;100.00;46711.19;4992667;28;20046;-63
2024/01/09 03:27:22;;;;;;;9.50;3.17;;;;;;;-145.18;100.00;46717.03;4992611;28;20422;-63
2024/01/09 03:29:47;;;;;;;8.27;2.83;;;;;;;-145.18;100.00;46715.09;4991880;28;20500;-63
2024/01/09 03:32:13;;;;;;;7.13;3.03;;;;;;;-145.18;100.00;46713.13;4991068;28;20051;-63
2024/01/09 03:34:40;;;;;;;5.20;2.00;;;;;;;-145.18;100.00;46719.00;4992285;28;20057;-63
2024/01/09 03:37:07;;;;;;;6.88;2.92;;;;;;;-145.18;100.00;46717.03;4992262;28;20026;-64
2024/01/09 03:39:32;;;;;;;5.53;2.10;;;;;;;-145.18;100.00;46715.09;4992308;28;20038;-63
2024/01/09 03:41:58;;;;;;;7.70;2.10;;;;;;;-145.18;100.00;46715.09;4974992;28;20041;-63
2024/01/09 03:44:23;;;;;;;7.37;2.70;;;;;;;-145.18;100.00;46713.13;4992129;28;20022;-63
2024/01/09 03:46:49;;;;;;;5.60;2.70;;;;;;;-145.18;100.00;46715.09;4990700;28;20161;-63
2024/01/09 03:49:14;;;;;;;5.20;2.17;;;;;;;-145.18;100.00;46717.03;4992144;28;20121;-63
2024/01/09 03:51:40;;;;;;;5.07;2.30;;;;;;;-145.18;100.00;46719.00;4992113;28;20058;-63
2024/01/09 03:54:05;;;;;;;5.10;2.17;;;;;;;-145.18;100.00;46713.13;4990621;28;20026;-63
2024/01/09 03:56:31;;;;;;;5.80;2.23;;;;;;;-145.18;100.00;46713.13;4992237;28;20042;-63
2024/01/09 03:58:57;;;;;;;4.67;2.10;;;;;;;-145.18;100.00;46722.91;4991650;28;20034;-63
2024/01/09 04:01:22;;;;;;;6.77;2.50;;;;;;;-145.18;100.00;46720.94;4991986;28;20022;-63
2024/01/09 04:03:48;;;;;;;6.07;2.23;;;;;;;-145.18;100.00;46722.91;4974692;28;20034;-63
2024/01/09 04:06:13;;;;;;;4.60;2.37;;;;;;;-145.18;100.00;46724.84;4992209;28;20191;-63
2024/01/09 04:08:39;;;;;;;4.50;2.37;;;;;;;-145.18;100.00;46726.81;4992042;28;20392;-64
2024/01/09 04:11:04;;;;;;;10.23;3.30;;;;;;;-145.18;100.00;46724.84;4992182;28;20390;-64
2024/01/09 04:13:30;;;;;;;7.03;2.57;;;;;;;-145.18;100.00;46726.81;4992065;28;20077;-63
2024/01/09 04:15:55;;;;;;;5.80;2.50;;;;;;;-145.18;100.00;46732.66;4991892;28;20030;-63
2024/01/09 04:18:21;;;;;;;10.83;2.47;;;;;;;-145.18;100.00;46730.72;4992254;28;20124;-63
2024/01/09 04:20:46;;;;;;;7.97;2.77;;;;;;;-145.18;100.00;46726.81;4991527;28;20026;-63
2024/01/09 04:23:11;;;;;;;5.73;2.70;;;;;;;-145.18;100.00;46730.72;4990628;28;20037;-65
2024/01/09 04:25:37;;;;;;;6.60;2.33;;;;;;;-145.18;100.00;46730.72;4992004;28;20434;-66
2024/01/09 04:28:02;;;;;;;5.40;2.27;;;;;;;-145.18;100.00;46726.81;4991986;28;20041;-66
2024/01/09 04:30:28;;;;;;;5.30;2.33;;;;;;;-145.18;100.00;46732.66;4974650;28;20566;-66
2024/01/09 04:32:53;;;;;;;7.57;2.63;;;;;;;-145.18;100.00;46730.72;4991501;28;20129;-66
2024/01/09 04:35:19;;;;;;;8.50;3.40;;;;;;;-145.18;100.00;46734.63;4991682;28;20026;-66
2024/01/09 04:37:44;;;;;;;9.67;3.00;;;;;;;-145.18;100.00;46734.63;4991888;28;20038;-66
2024/01/09 04:40:10;;;;;;;10.70;2.77;;;;;;;-145.18;100.00;46730.72;4991446;28;20394;-66
2024/01/09 04:42:35;;;;;;;6.70;2.63;;;;;;;-145.18;100.00;46734.63;4993578;28;20092;-65
2024/01/09 04:45:01;;;;;;;6.73;2.97;;;;;;;-145.18;100.00;46736.56;4994840;28;20042;-66
2024/01/09 04:47:26;;;;;;;12.57;3.23;;;;;;;-145.18;100.00;46734.63;4995404;28;20036;-67
2024/01/09 04:49:52;;;;;;;7.07;2.93;;;;;;;-145.18;100.00;46738.53;4995029;28;20027;-66
2024/01/09 04:52:17;;;;;;;7.23;2.67;;;;;;;-145.18;100.00;46734.63;4995043;28;20548;-66
2024/01/09 04:54:42;;;;;;;4.03;2.07;;;;;;;-145.18;100.00;46738.53;4994590;28;20034;-65
2024/01/09 04:57:08;;;;;;;6.33;2.80;;;;;;;-145.18;100.00;46736.56;4994846;28;20062;-66
2024/01/09 04:59:33;;;;;;;6.10;2.93;;;;;;;-145.18;100.00;46740.47;4995118;28;21360;-66
2024/01/09 05:02:01;;;;;;;8.87;2.40;;;;;;;-145.18;100.00;46734.63;4976381;28;20405;-66
2024/01/09 05:04:31;;;;;;;7.55;2.90;;;;;;;-145.18;100.00;46738.53;4994693;28;20037;-67
2024/01/09 05:06:57;;;;;;;5.90;2.75;;;;;;;-145.18;100.00;46738.53;4976957;28;20062;-65
2024/01/09 05:09:23;;;;;;;6.30;2.25;;;;;;;-145.18;100.00;46742.44;4994394;28;20446;-65
2024/01/09 05:11:49;;;;;;;5.70;2.95;;;;;;;-145.18;100.00;46734.63;4994413;28;20050;-65
2024/01/09 05:14:14;;;;;;;6.73;3.00;;;;;;;-145.18;100.00;46738.53;4994978;28;20034;-65
2024/01/09 05:16:40;;;;;;;6.43;2.63;;;;;;;-145.18;100.00;46734.63;4993313;28;20030;-66
2024/01/09 05:19:05;;;;;;;4.03;1.73;;;;;;;-145.18;100.00;46734.63;4994641;28;20026;-65
2024/01/09 05:21:30;;;;;;;6.93;3.10;;;;;;;-145.18;100.00;46734.63;4994008;28;20030;-65
2024/01/09 05:23:56;;;;;;;6.67;2.80;;;;;;;-145.18;100.00;46732.66;4977263;28;20068;-65
2024/01/09 05:26:22;;;;;;;7.77;2.70;;;;;;;-145.18;100.00;46730.72;4994678;28;20364;-65
2024/01/09 05:28:47;;;;;;;5.40;2.23;;;;;;;-145.18;100.00;46732.66;4994309;28;20033;-65
2024/01/09 05:31:12;;;;;;;8.13;3.40;;;;;;;-145.18;100.00;46726.81;4994228;28;21660;-65
2024/01/09 05:33:38;;;;;;;6.03;2.60;;;;;;;-145.18;100.00;46734.63;4992192;28;20084;-65
2024/01/09 05:36:04;;;;;;;6.70;2.80;;;;;;;-145.18;100.00;46734.63;4993720;28;20064;-65
2024/01/09 05:38:30;;;;;;;5.95;2.63;;;;;;;-145.18;100.00;46732.66;4993015;28;20064;-65
2024/01/09 05:40:55;;;;;;;6.77;2.93;;;;;;;-145.18;100.00;46732.66;4993965;28;20109;-65
2024/01/09 05:43:23;;;;;;;9.57;3.00;;;;;;;-145.18;100.00;46732.66;4993644;28;20376;-65
2024/01/09 05:45:48;;;;;;;6.15;2.70;;;;;;;-145.18;100.00;46730.72;4993050;28;20058;-66
2024/01/09 05:48:13;;;;;;;5.30;2.30;;;;;;;-145.18;100.00;46726.81;4992765;28;20499;-66
2024/01/09 05:50:39;;;;;;;6.73;3.17;;;;;;;-145.18;100.00;46722.91;4965109;28;20117;-65
2024/01/09 05:53:04;;;;;;;2.80;1.53;;;;;;;-145.18;100.00;46720.94;4993098;28;20038;-66
2024/01/09 05:55:30;;;;;;;4.27;2.13;;;;;;;-145.18;100.00;46720.94;4992908;28;20030;-65
2024/01/09 05:57:55;;;;;;;5.17;2.40;;;;;;;-145.18;100.00;46719.00;4992831;28;20113;-65
2024/01/09 06:00:20;;;;;;;4.53;2.03;;;;;;;-145.18;100.00;46717.03;4993622;28;20030;-65
2024/01/09 06:02:46;;;;;;;5.63;2.70;;;;;;;-145.18;100.00;46719.00;4994079;28;20552;-65
2024/01/09 06:05:11;;;;;;;8.87;2.70;;;;;;;-145.18;100.00;46717.03;4993882;28;20037;-66
2024/01/09 06:07:36;;;;;;;5.73;2.70;;;;;;;-145.18;100.00;46715.09;4993811;28;20030;-65
2024/01/09 06:10:03;;;;;;;8.90;3.10;;;;;;;-145.18;100.00;46713.13;4992279;28;20410;-65
2024/01/09 06:12:28;;;;;;;7.28;2.80;;;;;;;-145.18;100.00;46719.00;4976287;28;20405;-66
2024/01/09 06:14:53;;;;;;;6.93;2.67;;;;;;;-145.18;100.00;46713.13;4993016;28;20117;-65
2024/01/09 06:17:19;;;;;;;6.17;2.30;;;;;;;-145.18;100.00;46717.03;4992820;28;20053;-66
2024/01/09 06:19:44;;;;;;;8.17;2.90;;;;;;;-145.18;100.00;46722.91;4991825;28;20030;-65
2024/01/09 06:22:10;;;;;;;7.07;2.87;;;;;;;-145.18;100.00;46715.09;4993402;28;20029;-65
2024/01/09 06:24:35;;;;;;;4.60;2.30;;;;;;;-145.18;100.00;46715.09;4993447;28;20053;-65
2024/01/09 06:27:01;;;;;;;6.03;2.93;;;;;;;-145.18;100.00;46717.03;4993522;28;20422;-65
2024/01/09 06:29:29;;;;;;;5.23;2.77;;;;;;;-145.18;100.00;46717.03;4992828;28;20113;-66
2024/01/09 06:31:55;;;;;;;6.32;2.97;;;;;;;-145.18;100.00;46715.09;4992483;28;20073;-65
2024/01/09 06:34:20;;;;;;;8.50;3.13;;;;;;;-145.18;100.00;46719.00;4993403;28;20033;-65
2024/01/09 06:36:45;;;;;;;4.97;2.60;;;;;;;-145.18;100.00;46715.09;4992790;28;20506;-66
2024/01/09 06:39:12;;;;;;;6.17;2.40;;;;;;;-145.18;100.00;46711.19;4993454;28;20038;-66
2024/01/09 06:41:37;;;;;;;7.97;3.35;;;;;;;-145.18;100.00;46717.03;4981740;28;20030;-65
2024/01/09 06:44:03;;;;;;;6.50;2.80;;;;;;;-145.18;100.00;46717.03;4989913;28;20387;-65
2024/01/09 06:46:28;;;;;;;9.33;2.80;;;;;;;-145.18;100.00;46719.00;4999350;28;20027;-66
2024/01/09 06:48:54;;;;;;;7.57;2.67;;;;;;;-145.18;100.00;46715.09;4992919;28;20117;-66
2024/01/09 06:51:20;;;;;;;8.27;2.97;;;;;;;-145.18;100.00;46717.03;4991148;28;20113;-66
2024/01/09 06:53:45;;;;;;;9.57;3.07;;;;;;;-145.18;100.00;46717.03;4986746;28;20379;-65
2024/01/09 06:56:10;;;;;;;6.80;3.10;;;;;;;-145.18;100.00;46715.09;4991163;28;20041;-66
2024/01/09 06:58:36;;;;;;;7.90;2.90;;;;;;;-145.18;100.00;46722.91;4990399;28;20200;-65
2024/01/09 07:01:01;;;;;;;5.47;2.40;;;;;;;-145.18;100.00;46720.94;4988473;28;20033;-66
2024/01/09 07:03:26;;;;;;;7.83;3.47;;;;;;;-145.18;100.00;46720.94;4991073;28;20032;-66
2024/01/09 07:05:52;;;;;;;9.93;3.53;;;;;;;-145.18;100.00;46720.94;4990352;28;20121;-66
2024/01/09 07:08:18;;;;;;;8.37;3.23;;;;;;;-145.18;100.00;46720.94;4973448;28;20026;-66
2024/01/09 07:10:43;;;;;;;8.10;3.30;;;;;;;-145.18;100.00;46717.03;4988290;28;20495;-65
2024/01/09 07:13:08;;;;;;;7.53;3.10;;;;;;;-145.18;100.00;46719.00;4988761;28;20058;-66
2024/01/09 07:15:34;;;;;;;10.80;4.80;;;;;;;-145.18;100.00;46720.94;4991208;28;20038;-65
2024/01/09 07:17:59;;;;;;;3.90;1.93;;;;;;;-145.18;100.00;46719.00;4992589;28;20085;-66
2024/01/09 07:20:24;;;;;;;7.67;3.70;;;;;;;-145.18;100.00;46720.94;4991831;28;20550;-65
2024/01/09 07:22:50;;;;;;;9.37;3.23;;;;;;;-145.18;100.00;46722.91;4992203;28;20034;-65
2024/01/09 07:25:15;;;;;;;8.00;3.83;;;;;;;-145.18;100.00;46719.00;4991683;28;20058;-66
2024/01/09 07:27:41;;;;;;;9.90;3.43;;;;;;;-145.18;100.00;46722.91;4992599;28;20062;-66
2024/01/09 07:30:07;;;;;;;8.47;2.97;;;;;;;-145.18;100.00;46722.91;4991610;28;20529;-65
2024/01/09 07:32:33;;;;;;;8.57;3.60;;;;;;;-145.18;100.00;46720.94;4991681;28;20043;-65
2024/01/09 07:34:59;;;;;;;5.47;2.47;;;;;;;-145.18;100.00;46720.94;4990911;28;20393;-65
2024/01/09 07:37:24;;;;;;;9.63;2.60;;;;;;;-145.18;100.00;46717.03;4989672;28;20398;-66
2024/01/09 07:39:49;;;;;;;8.13;3.13;;;;;;;-145.18;100.00;46722.91;4991426;28;20045;-66
2024/01/09 07:42:15;;;;;;;6.30;3.20;;;;;;;-145.18;100.00;46722.91;4992028;28;20410;-65
2024/01/09 07:44:41;;;;;;;6.77;3.20;;;;;;;-145.18;100.00;46717.03;4991640;28;20038;-65
2024/01/09 07:47:11;;;;;;;6.47;2.90;;;;;;;-145.18;100.00;46720.94;4991824;28;20038;-66
2024/01/09 07:49:37;;;;;;;7.53;3.25;;;;;;;-145.18;100.00;46722.91;4989718;28;20027;-65
2024/01/09 07:52:03;;;;;;;9.43;3.72;;;;;;;-145.18;100.00;46719.00;4992191;28;20042;-65
2024/01/09 07:54:29;;;;;;;8.70;3.60;;;;;;;-145.18;100.00;46722.91;4992233;28;20077;-65
2024/01/09 07:56:54;;;;;;;8.33;3.47;;;;;;;-145.18;100.00;46724.84;4989771;28;20387;-66
2024/01/09 07:59:19;;;;;;;8.33;3.97;;;;;;;-145.18;100.00;46726.81;4974664;28;20057;-66
2024/01/09 08:01:50;;;;;;;11.50;5.67;;;;;;;-145.18;100.00;46724.84;4991901;28;20471;-65
2024/01/09 08:04:16;;;;;;;11.77;3.85;;;;;;;-145.18;100.00;46724.84;4992104;28;20023;-66
2024/01/09 08:06:41;;;;;;;10.33;3.90;;;;;;;-145.18;100.00;46724.84;4974482;28;20041;-66
2024/01/09 08:09:06;;;;;;;7.60;3.47;;;;;;;-145.18;100.00;46720.94;4991852;28;20030;-65
2024/01/09 08:11:32;;;;;;;10.13;3.80;;;;;;;-145.18;100.00;46724.84;4974273;28;20495;-65
2024/01/09 08:13:57;;;;;;;7.97;3.67;;;;;;;-145.18;100.00;46730.72;4991963;28;20038;-66
2024/01/09 08:16:24;;;;;;;8.47;4.17;;;;;;;-145.18;100.00;46730.72;4990048;28;20042;-66
2024/01/09 08:18:49;;;;;;;9.23;3.83;;;;;;;-145.18;100.00;46722.91;4989710;28;20038;-65
2024/01/09 08:21:14;;;;;;;9.27;4.33;;;;;;;-145.18;100.00;46724.84;4973537;28;20549;-66
2024/01/09 08:23:40;;;;;;;9.13;4.60;;;;;;;-145.18;100.00;46722.91;4971707;28;20147;-65
2024/01/09 08:26:05;;;;;;;8.43;3.57;;;;;;;-145.18;100.00;46726.81;4991010;28;20058;-66
2024/01/09 08:28:30;;;;;;;14.47;3.37;;;;;;;-145.18;100.00;46720.94;4991553;28;20041;-66
2024/01/09 08:30:56;;;;;;;9.70;4.47;;;;;;;-145.18;100.00;46722.91;4972545;28;20034;-65
2024/01/09 08:33:21;;;;;;;12.00;4.00;;;;;;;-145.18;100.00;46722.91;4991874;28;20034;-65
2024/01/09 08:35:50;;;;;;;7.83;3.17;;;;;;;-145.18;100.00;46719.00;4990080;28;20405;-65
2024/01/09 08:38:17;;;;;;;10.57;4.60;;;;;;;-145.18;100.00;46720.94;4988921;28;20030;-65
2024/01/09 08:40:42;;;;;;;11.40;5.10;;;;;;;-145.18;100.00;46717.03;4987733;28;20034;-66
2024/01/09 08:43:08;;;;;;;11.03;3.80;;;;;;;-145.18;100.00;46724.84;4989339;28;21377;-65
2024/01/09 08:45:33;;;;;;;7.87;3.93;;;;;;;-145.18;100.00;46719.00;4988681;28;20045;-65
2024/01/09 08:47:58;;;;;;;8.17;3.40;;;;;;;-145.18;100.00;46719.00;4988260;28;20022;-66
2024/01/09 08:50:24;;;;;;;11.13;3.43;;;;;;;-145.18;100.00;46717.03;4987740;28;20443;-65
2024/01/09 08:52:50;;;;;;;9.47;4.00;;;;;;;-145.18;100.00;46715.09;4989119;28;20705;-65
2024/01/09 08:55:16;;;;;;;8.85;2.63;;;;;;;-145.18;100.00;46719.00;4988787;28;20562;-65
2024/01/09 08:57:41;;;;;;;10.70;4.03;;;;;;;-145.18;100.00;46719.00;4989271;28;20173;-65
2024/01/09 09:00:07;;;;;;;7.67;3.47;;;;;;;-145.18;100.00;46713.13;4989736;28;20063;-66
2024/01/09 09:02:33;;;;;;;7.50;3.50;;;;;;;-145.18;100.00;46715.09;4989700;28;20116;-65
2024/01/09 09:04:58;;;;;;;9.30;4.50;;;;;;;-145.18;100.00;46715.09;4988887;28;20134;-66
2024/01/09 09:07:23;;;;;;;6.83;3.67;;;;;;;-145.18;100.00;46715.09;4988961;28;20034;-66
2024/01/09 09:09:49;;;;;;;12.50;3.43;;;;;;;-145.18;100.00;46713.13;4989180;28;20494;-65
2024/01/09 09:12:14;;;;;;;9.20;3.80;;;;;;;-145.18;100.00;46713.13;4988175;28;20038;-66
2024/01/09 09:14:40;;;;;;;8.97;3.80;;;;;;;-145.18;100.00;46711.19;4987898;28;20038;-65
2024/01/09 09:17:05;;;;;;;10.80;4.30;;;;;;;-145.18;100.00;46713.13;4989342;28;20380;-66
2024/01/09 09:19:31;;;;;;;11.60;2.90;;;;;;;-145.18;100.00;46715.09;4988295;28;20405;-65
2024/01/09 09:22:03;;;;;;;9.30;3.30;;;;;;;-145.18;100.00;46713.13;4988519;28;20042;-65
2024/01/09 09:24:28;;;;;;;7.15;3.45;;;;;;;-145.18;100.00;46709.22;4988581;28;20117;-66
2024/01/09 09:26:54;;;;;;;3.73;1.83;;;;;;;-145.18;97.89;46709.22;4988276;28;20129;-65
2024/01/09 09:29:19;;;;;;;9.33;4.60;;;;;;;-145.18;95.13;46703.38;4987429;28;20035;-66
2024/01/09 09:31:44;;;;;;;7.57;3.57;;;;;;;-145.18;92.81;46705.31;4987428;28;20061;-66
2024/01/09 09:34:10;;;;;;;6.93;3.07;;;;;;;-145.18;78.87;46707.28;4986535;28;20038;-66
2024/01/09 09:36:35;;;;;;;9.17;3.80;;;;;;;-145.18;75.75;46703.38;4987887;28;20510;-66
2024/01/09 09:39:02;;;;;;;6.77;3.40;;;;;;;-145.18;75.79;46707.28;4989714;28;20042;-66
2024/01/09 09:41:29;;;;;;;8.57;3.17;;;;;;;-145.18;66.18;46703.38;4992165;28;20089;-65
2024/01/09 09:43:56;;;;;;;9.50;4.22;;;;;;;-145.18;60.07;46699.47;4990529;28;20496;-65
2024/01/09 09:46:30;;;;;;;9.88;4.40;;;;;;;-145.18;57.43;46703.38;4972628;28;20109;-65
2024/01/09 09:48:56;;;;;;;7.82;3.70;;;;;;;-145.18;51.82;46699.47;4992641;28;20050;-66
2024/01/09 09:51:24;;;;;;;10.43;3.70;;;;;;;-145.18;48.67;46697.50;4992742;28;20104;-67
2024/01/09 09:53:51;;;;;;;10.77;4.65;;;;;;;-145.18;39.38;46701.41;4991261;28;20033;-67
2024/01/09 09:56:16;;;;;;;7.50;3.60;;;;;;;-145.18;39.85;46699.47;4991861;28;20045;-68
2024/01/09 09:58:42;;;;;;;6.70;3.40;;;;;;;-145.18;33.43;46703.38;4992987;28;20038;-68
2024/01/09 10:01:12;;;;;;;9.10;3.17;;;;;;;-145.18;34.25;46695.56;4992396;28;20066;-69
2024/01/09 10:03:44;;;;;;;12.77;3.67;;;;;;;-145.18;35.99;46699.47;4991289;28;20042;-69
2024/01/09 10:06:11;;;;;;;8.88;3.65;;;;;;;-145.18;29.02;46701.41;4993049;28;20034;-69
2024/01/09 10:08:38;;;;;;;9.65;3.97;;;;;;;-145.18;20.29;46695.56;4992598;28;20034;-69
2024/01/09 10:11:04;;;;;;;8.18;3.97;;;;;;;-145.18;15.81;46691.66;4992727;28;20077;-69
2024/01/09 10:13:29;;;;;;;10.80;4.50;;;;;;;-145.18;12.48;46697.50;4990043;28;20029;-70
2024/01/09 10:16:00;;;;;;;10.30;4.03;;;;;;;-145.18;0.00;46691.66;4992204;28;20026;-69
2024/01/09 10:18:32;;;;;;;9.43;4.05;;;;;;;-145.18;0.00;46691.66;4988898;28;20077;-70
2024/01/09 10:21:01;;;;;;;11.88;4.40;;;;;;;-145.18;0.00;46689.69;4992575;28;20026;-69
2024/01/09 10:23:27;;;;;;;9.77;4.57;;;;;;;-145.18;0.00;46685.78;4992032;28;20027;-70
2024/01/09 10:25:53;;;;;;;8.32;3.63;;;;;;;-145.18;0.00;46683.84;4992318;28;20057;-69
2024/01/09 10:28:19;;;;;;;10.05;3.63;;;;;;;-145.18;0.00;46685.78;4992323;28;20030;-69
2024/01/09 10:30:45;;;;;;;8.30;3.40;;;;;;;-145.18;0.00;46683.84;4991983;28;20406;-69
2024/01/09 10:33:12;;;;;;;11.00;4.20;;;;;;;-145.18;0.00;46685.78;4974546;28;20046;-69
2024/01/09 10:35:38;;;;;;;9.45;4.35;;;;;;;-145.18;0.00;46683.84;4991552;28;20559;-69
2024/01/09 10:38:03;;;;;;;8.57;3.65;;;;;;;-145.18;0.00;46679.94;4992188;28;20030;-70
2024/01/09 10:40:29;;;;;;;5.97;3.47;;;;;;;-145.18;0.00;46679.94;4991010;28;20089;-70
2024/01/09 10:42:54;;;;;;;5.70;2.80;;;;;;;-145.18;0.00;46672.13;4992355;28;20034;-71
2024/01/09 10:45:24;;;;;;;8.63;3.57;;;;;;;-145.18;0.00;46677.97;4989593;28;20038;-72
2024/01/09 10:47:53;;;;;;;8.10;3.40;;;;;;;-145.18;0.00;46676.03;4992163;28;20072;-72
2024/01/09 10:50:22;;;;;;;9.25;4.38;;;;;;;-145.18;0.00;46672.13;4989165;28;20112;-73
2024/01/09 10:52:48;;;;;;;11.68;4.22;;;;;;;-145.18;0.00;46670.16;4992530;28;20085;-74
2024/01/09 10:55:18;;;;;;;13.60;4.53;;;;;;;-145.18;0.00;46674.06;4994416;28;20065;-73
2024/01/09 10:57:49;;;;;;;7.78;4.22;;;;;;;-145.18;0.00;46670.16;4991077;28;20384;-73
2024/01/09 11:00:16;;;;;;;11.05;4.40;;;;;;;-145.18;0.00;46666.25;4991396;28;20121;-74
2024/01/09 11:02:41;;;;;;;8.10;3.53;;;;;;;-145.18;0.00;46664.31;4992025;28;20038;-75